AirNav   Air Wisconsin Up To $57,000 Bonus
 
 1042 users online  

1XA6 Tailwheel Acres Airport
Valley View, Texas, USA

GOING TO VALLEY VIEW?


FAA INFORMATION EFFECTIVE 22 APRIL 2021

Location

FAA Identifier: 1XA6
Lat/Long: 33-28-25.4200N 097-07-20.7600W
33-28.423667N 097-07.346000W
33.4737278,-97.1224333
(estimated)
Elevation: 702 ft. / 214 m (estimated)
From city: 3 miles E of VALLEY VIEW, TX
Time zone: UTC -5 (UTC -6 during Standard Time)
Zip code: 76272

Airport Operations

Airport use: Private use. Permission required prior to landing
Activation date: 01/2006
Control tower: no
ARTCC: FORT WORTH CENTER
FSS: FORT WORTH FLIGHT SERVICE STATION
Attendance: DAWN-DUSK
Wind indicator: yes
Segmented circle: no

Airport Communications

WX AWOS-3 at GLE (11 nm N): 118.375 (940-612-3549)
WX ASOS at DTO (17 nm S): 119.325 (940-383-8457)

Nearby radio navigation aids

VOR radial/distance  VOR name  Freq  Var
UKWr090/35.2BOWIE VORTAC117.1506E
FUZr359/35.2RANGER VORTAC115.7006E
TTTr348/36.5MAVERICK VOR/DME113.1006E
CVEr337/36.7COWBOY VOR/DME116.2006E

 
NDB name  Hdg/Dist  Freq  Var  ID
PINCK014/12.025704EDT -.. -
DENISON221/31.034106EDNI -.. -. ..

Airport Services

Runway Information

Runway 18/36

Dimensions: 2483 x 125 ft. / 757 x 38 m
Surface: turf
RUNWAY 18  RUNWAY 36
Traffic pattern: rightleft

Airport Ownership and Management from official FAA records

Ownership: Privately-owned
Owner: BOBBY JONES
PO BOX 798
KRUM, TX 76249
Phone 940-458-2050
Manager: BOBBY JONES
PO BOX 798
KRUM, TX 76249
Phone 940-458-2050

Airport Operational Statistics

Aircraft based on the field: 2
Single engine airplanes: 2
    

Additional Remarks

FOR CD CTC FORT WORTH ARTCC AT 817-858-7584.

Instrument Procedures

There are no published instrument procedures at 1XA6.

Some nearby airports with instrument procedures:

KGLE - Gainesville Municipal Airport (11 nm N)
KDTO - Denton Enterprise Airport (17 nm S)
KLUD - Decatur Municipal Airport (26 nm SW)
KGYI - North Texas Regional Airport/Perrin Field (27 nm NE)
KSWI - Sherman Municipal Airport (28 nm E)
 
Loc | Ops | Rwys | IFR | FBO | Links
Com | Nav | Svcs | Stats | Notes

City of Fort Worth
 
Area around 1XA6 (Tailwheel Acres Airport)
 
Road maps at: MapQuest Bing Google
 
Aerial photo
No photo
 
Sectional chart

 
Airport distance calculator
Flying to Tailwheel Acres Airport? Find the distance to fly.

From to 1XA6

Sunrise and sunset
Times for 15-May-2021
 Local
(UTC-5)
 Zulu
(UTC)
Morning civil twilight06:0211:02
Sunrise06:2911:29
Sunset20:2101:21
Evening civil twilight20:4801:48

Current date and time
Zulu (UTC)  15-May-2021 22:09:22
Local (UTC-5)  15-May-2021 17:09:22
 
METAR
KGLE 
11nm N 
152155Z AUTO 16011G14KT 10SM SCT060 26/17 A3002 RMK AO2 T02600167 PWINO
KDTO 
17nm S 
152153Z 17011KT 10SM FEW041 SCT055 BKN080 26/17 A3001 RMK AO2 SLP155 T02560172
TAF
KAFW 
32nm S 
151734Z 1518/1618 17014G24KT P6SM BKN060 FM152300 16014KT P6SM VCSH BKN060 FM160200 17011KT P6SM BKN040 FM160900 16011KT P6SM BKN015 FM161200 15011KT 5SM -RA VCTS OVC015CB FM161400 16011KT 5SM RA VCTS OVC010CB
KDFW 
35nm S 
151734Z 1518/1624 18014G24KT P6SM SCT060 BKN300 FM152300 16014KT P6SM VCSH BKN040 FM160200 17011KT P6SM BKN040 FM160900 16011KT P6SM BKN015 FM161200 15011KT P6SM VCTS OVC015CB FM161500 16011KT 5SM RA VCTS OVC010CB
KDAL 
40nm S 
151734Z 1518/1618 18012G22KT P6SM SCT060 BKN250 FM152300 16014KT P6SM VCSH BKN040 FM160200 17011KT P6SM BKN040 FM160900 16011KT P6SM BKN015 FM161200 15011KT P6SM VCTS OVC015CB FM161500 16011KT 5SM RA VCTS OVC010CB
NOTAMs
Click for the latest NOTAMs
NOTAMs are issued by the DoD/FAA and will open in a separate window not controlled by AirNav.

 

 
 

Would you like to see your business listed on this page?

 If your business provides an interesting product or service to pilots, flight crews, aircraft, or users of the Tailwheel Acres Airport, you should consider listing it here.  To start the listing process, click on the button below
 
Add a business
 

Other Pages about Tailwheel Acres Airport

Update a link
 
Copyright © AirNav, LLC. All rights reserved. Privacy Policy  Contact